sensor_id;sensor_type;location;lat;lon;timestamp;temperature;humidity
32139;DHT22;18644;48.700;9.210;2023-07-29T00:00:44;20.10;66.20
32139;DHT22;18644;48.700;9.210;2023-07-29T00:03:10;20.10;66.50
32139;DHT22;18644;48.700;9.210;2023-07-29T00:05:38;20.20;66.60
32139;DHT22;18644;48.700;9.210;2023-07-29T00:08:05;20.20;66.90
32139;DHT22;18644;48.700;9.210;2023-07-29T00:10:36;20.20;67.00
32139;DHT22;18644;48.700;9.210;2023-07-29T00:13:04;20.20;67.10
32139;DHT22;18644;48.700;9.210;2023-07-29T00:15:31;20.20;66.90
32139;DHT22;18644;48.700;9.210;2023-07-29T00:17:58;20.20;66.90
32139;DHT22;18644;48.700;9.210;2023-07-29T00:20:25;20.20;66.90
32139;DHT22;18644;48.700;9.210;2023-07-29T00:22:52;20.20;67.00
32139;DHT22;18644;48.700;9.210;2023-07-29T00:25:20;20.20;67.20
32139;DHT22;18644;48.700;9.210;2023-07-29T00:27:48;20.20;67.20
32139;DHT22;18644;48.700;9.210;2023-07-29T00:30:15;20.20;67.20
32139;DHT22;18644;48.700;9.210;2023-07-29T00:32:42;20.20;67.10
32139;DHT22;18644;48.700;9.210;2023-07-29T00:35:09;20.20;67.10
32139;DHT22;18644;48.700;9.210;2023-07-29T00:37:36;20.20;67.10
32139;DHT22;18644;48.700;9.210;2023-07-29T00:40:07;20.20;67.10
32139;DHT22;18644;48.700;9.210;2023-07-29T00:42:39;20.20;67.20
32139;DHT22;18644;48.700;9.210;2023-07-29T00:45:09;20.20;67.20
32139;DHT22;18644;48.700;9.210;2023-07-29T00:47:37;20.20;67.30
32139;DHT22;18644;48.700;9.210;2023-07-29T00:50:05;20.20;67.30
32139;DHT22;18644;48.700;9.210;2023-07-29T00:52:33;20.20;67.40
32139;DHT22;18644;48.700;9.210;2023-07-29T00:55:00;20.20;67.40
32139;DHT22;18644;48.700;9.210;2023-07-29T00:57:28;20.20;67.40
32139;DHT22;18644;48.700;9.210;2023-07-29T00:59:56;20.20;67.40
32139;DHT22;18644;48.700;9.210;2023-07-29T01:02:24;20.20;67.30
32139;DHT22;18644;48.700;9.210;2023-07-29T01:04:52;20.20;67.40
32139;DHT22;18644;48.700;9.210;2023-07-29T01:07:23;20.20;68.30
32139;DHT22;18644;48.700;9.210;2023-07-29T01:09:59;20.20;67.60
32139;DHT22;18644;48.700;9.210;2023-07-29T01:12:35;20.20;67.70
32139;DHT22;18644;48.700;9.210;2023-07-29T01:15:16;20.20;67.80
32139;DHT22;18644;48.700;9.210;2023-07-29T01:17:48;20.20;67.70
32139;DHT22;18644;48.700;9.210;2023-07-29T01:20:19;20.20;67.70
32139;DHT22;18644;48.700;9.210;2023-07-29T01:22:46;20.30;67.70
32139;DHT22;18644;48.700;9.210;2023-07-29T01:25:15;20.20;67.70
32139;DHT22;18644;48.700;9.210;2023-07-29T01:27:43;20.30;67.80
32139;DHT22;18644;48.700;9.210;2023-07-29T01:30:12;20.20;67.60
32139;DHT22;18644;48.700;9.210;2023-07-29T01:32:43;20.30;67.60
32139;DHT22;18644;48.700;9.210;2023-07-29T01:35:19;20.20;67.70
32139;DHT22;18644;48.700;9.210;2023-07-29T01:37:56;20.30;67.80
32139;DHT22;18644;48.700;9.210;2023-07-29T01:40:28;20.30;67.90
32139;DHT22;18644;48.700;9.210;2023-07-29T01:42:55;20.30;67.80
32139;DHT22;18644;48.700;9.210;2023-07-29T01:45:23;20.20;67.90
32139;DHT22;18644;48.700;9.210;2023-07-29T01:47:51;20.30;68.00
32139;DHT22;18644;48.700;9.210;2023-07-29T01:50:18;20.30;68.10
32139;DHT22;18644;48.700;9.210;2023-07-29T01:52:45;20.30;68.90
32139;DHT22;18644;48.700;9.210;2023-07-29T01:55:12;20.30;68.20
32139;DHT22;18644;48.700;9.210;2023-07-29T01:57:40;20.30;68.20
32139;DHT22;18644;48.700;9.210;2023-07-29T02:00:08;20.30;68.20
32139;DHT22;18644;48.700;9.210;2023-07-29T02:02:36;20.30;68.20
32139;DHT22;18644;48.700;9.210;2023-07-29T02:05:03;20.30;68.30
32139;DHT22;18644;48.700;9.210;2023-07-29T02:07:30;20.30;68.40
32139;DHT22;18644;48.700;9.210;2023-07-29T02:09:57;20.30;68.40
32139;DHT22;18644;48.700;9.210;2023-07-29T02:12:24;20.30;68.30
32139;DHT22;18644;48.700;9.210;2023-07-29T02:14:52;20.30;68.40
32139;DHT22;18644;48.700;9.210;2023-07-29T02:17:19;20.30;68.40
32139;DHT22;18644;48.700;9.210;2023-07-29T02:19:46;20.30;68.30
32139;DHT22;18644;48.700;9.210;2023-07-29T02:22:15;20.30;68.20
32139;DHT22;18644;48.700;9.210;2023-07-29T02:24:42;20.30;68.10
32139;DHT22;18644;48.700;9.210;2023-07-29T02:27:10;20.30;68.20
32139;DHT22;18644;48.700;9.210;2023-07-29T02:29:37;20.30;68.40
32139;DHT22;18644;48.700;9.210;2023-07-29T02:32:05;20.30;68.50
32139;DHT22;18644;48.700;9.210;2023-07-29T02:34:32;20.30;68.60
32139;DHT22;18644;48.700;9.210;2023-07-29T02:36:59;20.30;68.70
32139;DHT22;18644;48.700;9.210;2023-07-29T02:39:26;20.30;68.70
32139;DHT22;18644;48.700;9.210;2023-07-29T02:41:53;20.30;68.70
32139;DHT22;18644;48.700;9.210;2023-07-29T02:44:21;20.30;68.70
32139;DHT22;18644;48.700;9.210;2023-07-29T02:46:48;20.30;68.70
32139;DHT22;18644;48.700;9.210;2023-07-29T02:49:16;20.40;68.70
32139;DHT22;18644;48.700;9.210;2023-07-29T02:51:43;20.30;68.70
32139;DHT22;18644;48.700;9.210;2023-07-29T02:54:10;20.30;68.60
32139;DHT22;18644;48.700;9.210;2023-07-29T02:56:37;20.30;68.50
32139;DHT22;18644;48.700;9.210;2023-07-29T02:59:04;20.30;68.40
32139;DHT22;18644;48.700;9.210;2023-07-29T03:01:30;20.30;68.40
32139;DHT22;18644;48.700;9.210;2023-07-29T03:03:57;20.30;68.30
32139;DHT22;18644;48.700;9.210;2023-07-29T03:06:26;20.30;68.40
32139;DHT22;18644;48.700;9.210;2023-07-29T03:08:52;20.30;68.40
32139;DHT22;18644;48.700;9.210;2023-07-29T03:11:19;20.30;68.40
32139;DHT22;18644;48.700;9.210;2023-07-29T03:13:46;20.30;68.40
32139;DHT22;18644;48.700;9.210;2023-07-29T03:16:15;20.30;68.40
32139;DHT22;18644;48.700;9.210;2023-07-29T03:18:44;20.30;68.30
32139;DHT22;18644;48.700;9.210;2023-07-29T03:21:11;20.30;68.30
32139;DHT22;18644;48.700;9.210;2023-07-29T03:23:40;20.30;68.20
32139;DHT22;18644;48.700;9.210;2023-07-29T03:26:07;20.30;68.20
32139;DHT22;18644;48.700;9.210;2023-07-29T03:28:38;20.30;68.20
32139;DHT22;18644;48.700;9.210;2023-07-29T03:31:05;20.30;68.20
32139;DHT22;18644;48.700;9.210;2023-07-29T03:33:32;20.30;68.10
32139;DHT22;18644;48.700;9.210;2023-07-29T03:36:00;20.30;68.20
32139;DHT22;18644;48.700;9.210;2023-07-29T03:38:26;20.20;68.20
32139;DHT22;18644;48.700;9.210;2023-07-29T03:40:56;20.20;68.20
32139;DHT22;18644;48.700;9.210;2023-07-29T03:43:23;20.20;68.40
32139;DHT22;18644;48.700;9.210;2023-07-29T03:45:51;20.20;68.40
32139;DHT22;18644;48.700;9.210;2023-07-29T03:48:17;20.20;68.40
32139;DHT22;18644;48.700;9.210;2023-07-29T03:50:44;20.20;68.40
32139;DHT22;18644;48.700;9.210;2023-07-29T03:53:11;20.20;68.50
32139;DHT22;18644;48.700;9.210;2023-07-29T03:55:38;20.20;68.60
32139;DHT22;18644;48.700;9.210;2023-07-29T03:58:07;20.20;68.60
32139;DHT22;18644;48.700;9.210;2023-07-29T04:00:34;20.20;68.70
32139;DHT22;18644;48.700;9.210;2023-07-29T04:03:00;20.20;68.70
32139;DHT22;18644;48.700;9.210;2023-07-29T04:05:27;20.20;68.80
32139;DHT22;18644;48.700;9.210;2023-07-29T04:07:54;20.20;68.80
32139;DHT22;18644;48.700;9.210;2023-07-29T04:10:21;20.30;68.90
32139;DHT22;18644;48.700;9.210;2023-07-29T04:12:48;20.30;69.10
32139;DHT22;18644;48.700;9.210;2023-07-29T04:15:16;20.30;69.20
32139;DHT22;18644;48.700;9.210;2023-07-29T04:17:43;20.30;69.30
32139;DHT22;18644;48.700;9.210;2023-07-29T04:20:11;20.30;69.30
32139;DHT22;18644;48.700;9.210;2023-07-29T04:22:38;20.30;69.40
32139;DHT22;18644;48.700;9.210;2023-07-29T04:25:06;20.30;69.40
32139;DHT22;18644;48.700;9.210;2023-07-29T04:27:33;20.30;69.50
32139;DHT22;18644;48.700;9.210;2023-07-29T04:30:00;20.30;69.60
32139;DHT22;18644;48.700;9.210;2023-07-29T04:32:28;20.30;69.70
32139;DHT22;18644;48.700;9.210;2023-07-29T04:34:55;20.40;69.80
32139;DHT22;18644;48.700;9.210;2023-07-29T04:37:22;20.40;69.80
32139;DHT22;18644;48.700;9.210;2023-07-29T04:39:48;20.40;69.80
32139;DHT22;18644;48.700;9.210;2023-07-29T04:42:15;20.40;69.90
32139;DHT22;18644;48.700;9.210;2023-07-29T04:44:42;20.40;70.00
32139;DHT22;18644;48.700;9.210;2023-07-29T04:47:09;20.50;70.00
32139;DHT22;18644;48.700;9.210;2023-07-29T04:49:41;20.50;70.80
32139;DHT22;18644;48.700;9.210;2023-07-29T04:52:08;20.50;70.10
32139;DHT22;18644;48.700;9.210;2023-07-29T04:54:35;20.50;70.10
32139;DHT22;18644;48.700;9.210;2023-07-29T04:57:02;20.50;70.10
32139;DHT22;18644;48.700;9.210;2023-07-29T04:59:29;20.50;70.20
32139;DHT22;18644;48.700;9.210;2023-07-29T05:01:56;20.50;70.30
32139;DHT22;18644;48.700;9.210;2023-07-29T05:04:23;20.50;70.30
32139;DHT22;18644;48.700;9.210;2023-07-29T05:06:51;20.60;70.50
32139;DHT22;18644;48.700;9.210;2023-07-29T05:09:19;20.60;70.60
32139;DHT22;18644;48.700;9.210;2023-07-29T05:11:46;20.60;70.60
32139;DHT22;18644;48.700;9.210;2023-07-29T05:14:15;20.60;70.60
32139;DHT22;18644;48.700;9.210;2023-07-29T05:16:43;20.60;70.60
32139;DHT22;18644;48.700;9.210;2023-07-29T05:19:10;20.60;70.70
32139;DHT22;18644;48.700;9.210;2023-07-29T05:21:39;20.60;70.80
32139;DHT22;18644;48.700;9.210;2023-07-29T05:24:07;20.70;71.00
32139;DHT22;18644;48.700;9.210;2023-07-29T05:26:34;20.70;71.10
32139;DHT22;18644;48.700;9.210;2023-07-29T05:29:01;20.70;71.10
32139;DHT22;18644;48.700;9.210;2023-07-29T05:31:29;20.80;71.30
32139;DHT22;18644;48.700;9.210;2023-07-29T05:33:56;20.80;71.30
32139;DHT22;18644;48.700;9.210;2023-07-29T05:36:23;20.80;71.40
32139;DHT22;18644;48.700;9.210;2023-07-29T05:38:50;20.80;71.40
32139;DHT22;18644;48.700;9.210;2023-07-29T05:41:19;20.90;71.60
32139;DHT22;18644;48.700;9.210;2023-07-29T05:43:46;21.00;71.80
32139;DHT22;18644;48.700;9.210;2023-07-29T05:46:13;21.00;71.90
32139;DHT22;18644;48.700;9.210;2023-07-29T05:48:40;21.00;72.20
32139;DHT22;18644;48.700;9.210;2023-07-29T05:51:07;21.10;72.50
32139;DHT22;18644;48.700;9.210;2023-07-29T05:53:34;21.20;72.80
32139;DHT22;18644;48.700;9.210;2023-07-29T05:56:00;21.20;72.90
32139;DHT22;18644;48.700;9.210;2023-07-29T05:58:29;21.30;72.80
32139;DHT22;18644;48.700;9.210;2023-07-29T06:00:56;21.40;72.60
32139;DHT22;18644;48.700;9.210;2023-07-29T06:03:23;21.50;72.50
32139;DHT22;18644;48.700;9.210;2023-07-29T06:05:50;21.50;72.40
32139;DHT22;18644;48.700;9.210;2023-07-29T06:08:17;21.60;72.50
32139;DHT22;18644;48.700;9.210;2023-07-29T06:10:44;21.70;72.60
32139;DHT22;18644;48.700;9.210;2023-07-29T06:13:11;21.70;72.70
32139;DHT22;18644;48.700;9.210;2023-07-29T06:15:39;21.80;72.70
32139;DHT22;18644;48.700;9.210;2023-07-29T06:18:06;21.90;72.70
32139;DHT22;18644;48.700;9.210;2023-07-29T06:20:33;21.90;72.90
32139;DHT22;18644;48.700;9.210;2023-07-29T06:23:00;22.00;73.10
32139;DHT22;18644;48.700;9.210;2023-07-29T06:25:27;22.10;73.20
32139;DHT22;18644;48.700;9.210;2023-07-29T06:27:54;22.20;73.20
32139;DHT22;18644;48.700;9.210;2023-07-29T06:30:22;22.30;73.10
32139;DHT22;18644;48.700;9.210;2023-07-29T06:32:50;22.40;73.00
32139;DHT22;18644;48.700;9.210;2023-07-29T06:35:17;22.50;73.00
32139;DHT22;18644;48.700;9.210;2023-07-29T06:37:44;22.60;72.90
32139;DHT22;18644;48.700;9.210;2023-07-29T06:40:11;22.70;72.70
32139;DHT22;18644;48.700;9.210;2023-07-29T06:42:38;22.70;72.50
32139;DHT22;18644;48.700;9.210;2023-07-29T06:45:06;22.80;72.40
32139;DHT22;18644;48.700;9.210;2023-07-29T06:47:34;22.80;72.10
32139;DHT22;18644;48.700;9.210;2023-07-29T06:50:02;22.90;71.70
32139;DHT22;18644;48.700;9.210;2023-07-29T06:52:29;22.90;71.20
32139;DHT22;18644;48.700;9.210;2023-07-29T06:54:56;23.00;70.80
32139;DHT22;18644;48.700;9.210;2023-07-29T06:57:23;22.90;70.30
32139;DHT22;18644;48.700;9.210;2023-07-29T06:59:50;22.90;70.00
32139;DHT22;18644;48.700;9.210;2023-07-29T07:02:17;22.90;69.70
32139;DHT22;18644;48.700;9.210;2023-07-29T07:04:44;22.90;69.60
32139;DHT22;18644;48.700;9.210;2023-07-29T07:07:12;22.80;69.40
32139;DHT22;18644;48.700;9.210;2023-07-29T07:09:39;22.70;69.30
32139;DHT22;18644;48.700;9.210;2023-07-29T07:12:06;22.60;69.20
32139;DHT22;18644;48.700;9.210;2023-07-29T07:14:34;22.70;69.20
32139;DHT22;18644;48.700;9.210;2023-07-29T07:17:01;22.60;69.10
32139;DHT22;18644;48.700;9.210;2023-07-29T07:19:27;22.50;69.10
32139;DHT22;18644;48.700;9.210;2023-07-29T07:21:54;22.40;69.10
32139;DHT22;18644;48.700;9.210;2023-07-29T07:24:23;22.40;69.10
32139;DHT22;18644;48.700;9.210;2023-07-29T07:26:49;22.40;69.30
32139;DHT22;18644;48.700;9.210;2023-07-29T07:29:16;22.30;69.40
32139;DHT22;18644;48.700;9.210;2023-07-29T07:31:50;22.30;69.40
32139;DHT22;18644;48.700;9.210;2023-07-29T07:34:17;22.30;69.90
32139;DHT22;18644;48.700;9.210;2023-07-29T07:36:44;22.30;69.60
32139;DHT22;18644;48.700;9.210;2023-07-29T07:39:11;22.20;69.70
32139;DHT22;18644;48.700;9.210;2023-07-29T07:41:40;22.20;70.00
32139;DHT22;18644;48.700;9.210;2023-07-29T07:44:08;22.30;70.40
32139;DHT22;18644;48.700;9.210;2023-07-29T07:46:36;22.30;70.70
32139;DHT22;18644;48.700;9.210;2023-07-29T07:49:03;22.30;70.80
32139;DHT22;18644;48.700;9.210;2023-07-29T07:51:30;22.30;70.90
32139;DHT22;18644;48.700;9.210;2023-07-29T07:53:57;22.40;70.90
32139;DHT22;18644;48.700;9.210;2023-07-29T07:56:23;22.40;70.90
32139;DHT22;18644;48.700;9.210;2023-07-29T07:58:52;22.40;70.90
32139;DHT22;18644;48.700;9.210;2023-07-29T08:01:19;22.50;71.10
32139;DHT22;18644;48.700;9.210;2023-07-29T08:03:46;22.50;71.10
32139;DHT22;18644;48.700;9.210;2023-07-29T08:06:13;22.60;71.20
32139;DHT22;18644;48.700;9.210;2023-07-29T08:08:40;22.60;71.30
32139;DHT22;18644;48.700;9.210;2023-07-29T08:11:07;22.70;71.40
32139;DHT22;18644;48.700;9.210;2023-07-29T08:13:34;22.80;71.60
32139;DHT22;18644;48.700;9.210;2023-07-29T08:16:03;22.80;71.80
32139;DHT22;18644;48.700;9.210;2023-07-29T08:18:30;22.90;72.30
32139;DHT22;18644;48.700;9.210;2023-07-29T08:20:58;23.00;72.50
32139;DHT22;18644;48.700;9.210;2023-07-29T08:23:28;23.10;72.50
32139;DHT22;18644;48.700;9.210;2023-07-29T08:25:57;23.20;72.30
32139;DHT22;18644;48.700;9.210;2023-07-29T08:28:27;23.30;72.30
32139;DHT22;18644;48.700;9.210;2023-07-29T08:30:55;23.40;72.40
32139;DHT22;18644;48.700;9.210;2023-07-29T08:33:23;23.50;72.40
32139;DHT22;18644;48.700;9.210;2023-07-29T08:35:50;23.60;72.30
32139;DHT22;18644;48.700;9.210;2023-07-29T08:38:17;23.70;72.30
32139;DHT22;18644;48.700;9.210;2023-07-29T08:40:47;23.90;72.20
32139;DHT22;18644;48.700;9.210;2023-07-29T08:43:19;23.90;71.90
32139;DHT22;18644;48.700;9.210;2023-07-29T08:45:46;24.10;72.20
32139;DHT22;18644;48.700;9.210;2023-07-29T08:48:15;24.20;72.30
32139;DHT22;18644;48.700;9.210;2023-07-29T08:50:49;24.40;72.10
32139;DHT22;18644;48.700;9.210;2023-07-29T08:53:17;24.50;71.60
32139;DHT22;18644;48.700;9.210;2023-07-29T08:55:44;24.60;71.40
32139;DHT22;18644;48.700;9.210;2023-07-29T08:58:11;24.70;71.10
32139;DHT22;18644;48.700;9.210;2023-07-29T09:00:39;24.80;70.70
32139;DHT22;18644;48.700;9.210;2023-07-29T09:03:06;24.90;70.30
32139;DHT22;18644;48.700;9.210;2023-07-29T19:37:45;24.00;56.70
32139;DHT22;18644;48.700;9.210;2023-07-29T19:40:13;23.90;56.10
32139;DHT22;18644;48.700;9.210;2023-07-29T19:42:40;23.90;56.40
32139;DHT22;18644;48.700;9.210;2023-07-29T19:45:07;23.90;56.80
32139;DHT22;18644;48.700;9.210;2023-07-29T19:47:35;23.90;57.10
32139;DHT22;18644;48.700;9.210;2023-07-29T19:50:02;23.80;57.10
32139;DHT22;18644;48.700;9.210;2023-07-29T19:52:30;23.80;57.40
32139;DHT22;18644;48.700;9.210;2023-07-29T19:54:59;23.80;57.50
32139;DHT22;18644;48.700;9.210;2023-07-29T19:57:25;23.80;57.70
32139;DHT22;18644;48.700;9.210;2023-07-29T19:59:53;23.80;57.80
32139;DHT22;18644;48.700;9.210;2023-07-29T20:02:20;23.80;57.90
32139;DHT22;18644;48.700;9.210;2023-07-29T20:04:51;23.70;58.00
32139;DHT22;18644;48.700;9.210;2023-07-29T20:07:20;23.70;58.20
32139;DHT22;18644;48.700;9.210;2023-07-29T20:09:47;23.70;58.20
32139;DHT22;18644;48.700;9.210;2023-07-29T20:12:16;23.70;58.40
32139;DHT22;18644;48.700;9.210;2023-07-29T20:14:44;23.70;58.50
32139;DHT22;18644;48.700;9.210;2023-07-29T20:17:11;23.70;58.50
32139;DHT22;18644;48.700;9.210;2023-07-29T20:19:38;23.70;58.50
32139;DHT22;18644;48.700;9.210;2023-07-29T20:22:05;23.60;58.50
32139;DHT22;18644;48.700;9.210;2023-07-29T20:24:32;23.60;58.60
32139;DHT22;18644;48.700;9.210;2023-07-29T20:26:59;23.60;58.60
32139;DHT22;18644;48.700;9.210;2023-07-29T20:29:28;23.60;58.60
32139;DHT22;18644;48.700;9.210;2023-07-29T20:31:55;23.50;58.70
32139;DHT22;18644;48.700;9.210;2023-07-29T20:34:23;23.50;58.80
32139;DHT22;18644;48.700;9.210;2023-07-29T20:36:50;23.50;59.00
32139;DHT22;18644;48.700;9.210;2023-07-29T20:39:17;23.50;59.10
32139;DHT22;18644;48.700;9.210;2023-07-29T20:41:44;23.50;59.10
32139;DHT22;18644;48.700;9.210;2023-07-29T20:44:12;23.40;59.70
32139;DHT22;18644;48.700;9.210;2023-07-29T20:46:40;23.40;59.20
32139;DHT22;18644;48.700;9.210;2023-07-29T20:49:08;23.40;59.40
32139;DHT22;18644;48.700;9.210;2023-07-29T20:51:35;23.40;60.10
32139;DHT22;18644;48.700;9.210;2023-07-29T20:54:02;23.30;59.70
32139;DHT22;18644;48.700;9.210;2023-07-29T20:56:30;23.30;59.80
32139;DHT22;18644;48.700;9.210;2023-07-29T20:58:59;23.30;59.90
32139;DHT22;18644;48.700;9.210;2023-07-29T21:01:27;23.20;59.80
32139;DHT22;18644;48.700;9.210;2023-07-29T21:03:56;23.20;59.90
32139;DHT22;18644;48.700;9.210;2023-07-29T21:06:24;23.20;60.00
32139;DHT22;18644;48.700;9.210;2023-07-29T21:08:51;23.20;60.00
32139;DHT22;18644;48.700;9.210;2023-07-29T21:11:18;23.20;60.10
32139;DHT22;18644;48.700;9.210;2023-07-29T21:13:48;23.20;60.10
32139;DHT22;18644;48.700;9.210;2023-07-29T21:16:15;23.10;60.00
32139;DHT22;18644;48.700;9.210;2023-07-29T21:18:44;23.10;60.10
32139;DHT22;18644;48.700;9.210;2023-07-29T21:21:12;23.10;60.10
32139;DHT22;18644;48.700;9.210;2023-07-29T21:23:39;23.10;60.30
32139;DHT22;18644;48.700;9.210;2023-07-29T21:26:07;23.00;60.30
32139;DHT22;18644;48.700;9.210;2023-07-29T21:28:34;23.00;60.30
32139;DHT22;18644;48.700;9.210;2023-07-29T21:31:02;23.00;60.40
32139;DHT22;18644;48.700;9.210;2023-07-29T21:33:32;23.00;60.50
32139;DHT22;18644;48.700;9.210;2023-07-29T21:36:00;22.90;60.60
32139;DHT22;18644;48.700;9.210;2023-07-29T21:38:29;22.90;60.60
32139;DHT22;18644;48.700;9.210;2023-07-29T21:40:56;22.90;60.70
32139;DHT22;18644;48.700;9.210;2023-07-29T21:43:37;22.90;60.90
32139;DHT22;18644;48.700;9.210;2023-07-29T21:46:04;22.90;60.80
32139;DHT22;18644;48.700;9.210;2023-07-29T21:48:33;22.80;60.90
32139;DHT22;18644;48.700;9.210;2023-07-29T21:51:00;22.80;61.00
32139;DHT22;18644;48.700;9.210;2023-07-29T21:53:29;22.80;61.20
32139;DHT22;18644;48.700;9.210;2023-07-29T21:55:56;22.80;61.30
32139;DHT22;18644;48.700;9.210;2023-07-29T21:58:23;22.80;61.40
32139;DHT22;18644;48.700;9.210;2023-07-29T22:00:51;22.80;61.40
32139;DHT22;18644;48.700;9.210;2023-07-29T22:03:19;22.80;61.60
32139;DHT22;18644;48.700;9.210;2023-07-29T22:05:46;22.70;62.40
32139;DHT22;18644;48.700;9.210;2023-07-29T22:08:13;22.80;61.70
32139;DHT22;18644;48.700;9.210;2023-07-29T22:10:43;22.70;61.80
32139;DHT22;18644;48.700;9.210;2023-07-29T22:13:10;22.70;61.90
32139;DHT22;18644;48.700;9.210;2023-07-29T22:15:37;22.70;61.90
32139;DHT22;18644;48.700;9.210;2023-07-29T22:18:05;22.70;62.00
32139;DHT22;18644;48.700;9.210;2023-07-29T22:20:32;22.70;62.10
32139;DHT22;18644;48.700;9.210;2023-07-29T22:22:59;22.70;62.30
32139;DHT22;18644;48.700;9.210;2023-07-29T22:25:27;22.70;62.40
32139;DHT22;18644;48.700;9.210;2023-07-29T22:27:58;22.70;62.50
32139;DHT22;18644;48.700;9.210;2023-07-29T22:30:25;22.70;62.60
32139;DHT22;18644;48.700;9.210;2023-07-29T22:32:52;22.70;62.70
32139;DHT22;18644;48.700;9.210;2023-07-29T22:35:19;22.70;62.80
32139;DHT22;18644;48.700;9.210;2023-07-29T22:37:47;22.70;62.90
32139;DHT22;18644;48.700;9.210;2023-07-29T22:40:14;22.70;63.00
32139;DHT22;18644;48.700;9.210;2023-07-29T22:42:42;22.70;63.00
32139;DHT22;18644;48.700;9.210;2023-07-29T22:45:11;22.70;63.20
32139;DHT22;18644;48.700;9.210;2023-07-29T22:47:37;22.70;63.20
32139;DHT22;18644;48.700;9.210;2023-07-29T22:50:05;22.70;63.20
32139;DHT22;18644;48.700;9.210;2023-07-29T22:52:33;22.70;63.20
32139;DHT22;18644;48.700;9.210;2023-07-29T22:55:00;22.70;63.40
32139;DHT22;18644;48.700;9.210;2023-07-29T22:57:27;22.70;63.40
32139;DHT22;18644;48.700;9.210;2023-07-29T22:59:54;22.70;63.50
32139;DHT22;18644;48.700;9.210;2023-07-29T23:02:23;22.70;63.50
32139;DHT22;18644;48.700;9.210;2023-07-29T23:04:50;22.70;63.70
32139;DHT22;18644;48.700;9.210;2023-07-29T23:07:17;22.80;63.70
32139;DHT22;18644;48.700;9.210;2023-07-29T23:09:44;22.80;63.80
32139;DHT22;18644;48.700;9.210;2023-07-29T23:12:11;22.80;63.90
32139;DHT22;18644;48.700;9.210;2023-07-29T23:14:39;22.80;63.90
32139;DHT22;18644;48.700;9.210;2023-07-29T23:17:06;22.70;63.90
32139;DHT22;18644;48.700;9.210;2023-07-29T23:19:35;22.70;63.90
32139;DHT22;18644;48.700;9.210;2023-07-29T23:22:03;22.70;64.00
32139;DHT22;18644;48.700;9.210;2023-07-29T23:24:31;22.70;64.10
32139;DHT22;18644;48.700;9.210;2023-07-29T23:26:59;22.70;65.00
32139;DHT22;18644;48.700;9.210;2023-07-29T23:29:26;22.70;64.80
32139;DHT22;18644;48.700;9.210;2023-07-29T23:31:53;22.70;64.50
32139;DHT22;18644;48.700;9.210;2023-07-29T23:34:21;22.60;64.50
32139;DHT22;18644;48.700;9.210;2023-07-29T23:36:51;22.60;64.50
32139;DHT22;18644;48.700;9.210;2023-07-29T23:39:32;22.60;64.70
32139;DHT22;18644;48.700;9.210;2023-07-29T23:42:00;22.60;64.60
32139;DHT22;18644;48.700;9.210;2023-07-29T23:44:28;22.60;64.70
32139;DHT22;18644;48.700;9.210;2023-07-29T23:46:58;22.60;64.70
32139;DHT22;18644;48.700;9.210;2023-07-29T23:49:28;22.60;64.80
32139;DHT22;18644;48.700;9.210;2023-07-29T23:54:55;22.50;64.80
32139;DHT22;18644;48.700;9.210;2023-07-29T23:57:22;22.50;65.00
32139;DHT22;18644;48.700;9.210;2023-07-29T23:59:49;22.50;65.00
